createdAt,value
2018-05-13T00:16:42.178Z,97695.21
2018-05-13T00:37:17.448Z,97702.34
2018-05-13T00:57:50.873Z,97707.22
2018-05-13T01:18:24.918Z,97768.86
2018-05-13T01:39:00.422Z,97781.80
2018-05-13T01:59:34.238Z,97771.88
2018-05-13T02:20:07.903Z,97789.19
2018-05-13T02:40:40.782Z,97708.85
2018-05-13T03:01:15.138Z,97699.21
2018-05-13T03:21:48.563Z,97695.27
2018-05-13T03:42:25.740Z,97707.08
2018-05-13T04:02:59.724Z,97713.66
2018-05-13T04:23:34.180Z,97733.64
2018-05-13T04:44:07.198Z,97689.48
2018-05-13T05:04:40.317Z,97716.42
2018-05-13T05:25:17.854Z,97730.79
2018-05-13T05:45:53.936Z,97740.27
2018-05-13T06:06:27.049Z,97730.06
2018-05-13T06:27:02.329Z,97750.13
2018-05-13T06:47:37.605Z,97784.27
2018-05-13T07:08:16.024Z,97765.69
2018-05-13T07:28:47.837Z,97773.38
2018-05-13T07:49:23.110Z,97777.33
2018-05-13T08:09:58.385Z,97781.00
2018-05-13T08:30:33.658Z,97798.95
2018-05-13T08:51:08.935Z,97797.23
2018-05-13T09:11:42.049Z,97804.06
2018-05-13T09:32:15.479Z,97786.84
2018-05-13T09:52:51.821Z,97774.27
2018-05-13T10:13:24.807Z,97745.13
2018-05-13T10:34:03.296Z,97761.25
2018-05-13T10:54:36.497Z,97761.11
2018-05-13T11:15:10.607Z,97750.42
2018-05-13T11:35:43.729Z,97727.25
2018-05-13T11:56:20.850Z,97697.95
2018-05-13T12:16:55.195Z,97704.05
2018-05-13T12:22:33.831Z,97702.84
2018-05-13T12:25:02.322Z,97700.26
2018-05-13T12:27:30.906Z,97704.63
2018-05-13T12:29:59.299Z,97704.70
2018-05-13T12:32:27.707Z,97708.49
2018-05-13T12:34:57.026Z,97700.53
2018-05-13T12:37:25.381Z,97701.47
2018-05-13T12:39:53.774Z,97699.92
2018-05-13T12:42:23.106Z,97697.56
2018-05-13T12:44:52.386Z,97704.50
2018-05-13T12:47:20.758Z,97699.37
2018-05-13T12:49:52.512Z,97699.31
2018-05-13T12:52:20.867Z,97702.97
2018-05-13T12:54:49.249Z,97699.23
2018-05-13T12:57:17.766Z,97698.59
2018-05-13T12:59:46.001Z,97700.72
2018-05-13T13:02:14.393Z,97694.42
2018-05-13T13:04:42.777Z,97696.39
2018-05-13T13:07:11.140Z,97696.16
2018-05-13T13:09:45.336Z,97695.05
2018-05-13T13:12:13.753Z,97692.63
2018-05-13T13:14:42.131Z,97686.58
2018-05-13T13:17:10.537Z,97687.83
2018-05-13T13:19:38.893Z,97686.30
2018-05-13T13:22:07.324Z,97684.13
2018-05-13T13:24:35.679Z,97685.35
2018-05-13T13:27:05.861Z,97688.95
2018-05-13T13:29:34.296Z,97694.22
2018-05-13T13:32:02.619Z,97699.70
2018-05-13T13:34:31.020Z,97692.44
2018-05-13T13:36:59.405Z,97695.52
2018-05-13T13:39:27.780Z,97690.53
2018-05-13T13:41:56.171Z,97690.41
2018-05-13T13:44:24.549Z,97687.42
2018-05-13T13:46:53.847Z,97694.27
2018-05-13T13:49:22.226Z,97697.60
2018-05-13T13:51:50.625Z,97691.08
2018-05-13T13:54:18.979Z,97695.98
2018-05-13T13:56:47.364Z,97688.62
2018-05-13T13:59:15.742Z,97684.56
2018-05-13T14:01:44.120Z,97686.27
2018-05-13T14:04:12.500Z,97685.05
2018-05-13T14:06:41.830Z,97674.56
2018-05-13T14:09:10.175Z,97673.98
2018-05-13T14:11:38.562Z,97668.25
2018-05-13T14:14:06.968Z,97663.88
2018-05-13T14:16:35.319Z,97667.34
2018-05-13T14:19:03.708Z,97674.23
2018-05-13T14:21:32.089Z,97665.78
2018-05-13T14:24:00.458Z,97671.19
2018-05-13T14:26:29.799Z,97671.41
2018-05-13T14:28:59.990Z,97660.86
2018-05-13T14:31:28.365Z,97664.68
2018-05-13T14:34:00.460Z,97662.38
2018-05-13T14:36:29.723Z,97662.61
2018-05-13T14:38:58.125Z,97664.14
2018-05-13T14:41:26.502Z,97667.33
2018-05-13T14:43:54.800Z,97662.53
2018-05-13T14:46:23.084Z,97657.27
2018-05-13T14:48:51.347Z,97658.08
2018-05-13T14:51:20.009Z,97652.90
2018-05-13T14:53:48.312Z,97650.27
2018-05-13T14:56:17.069Z,97650.68
2018-05-13T14:58:45.363Z,97647.49
2018-05-13T15:01:13.631Z,97641.25
2018-05-13T15:03:41.933Z,97639.81
2018-05-13T15:06:10.252Z,97644.49
2018-05-13T15:08:39.303Z,97642.86
2018-05-13T15:11:07.990Z,97637.30
2018-05-13T15:13:36.298Z,97640.59
2018-05-13T15:16:04.597Z,97637.19
2018-05-13T15:18:32.913Z,97643.78
2018-05-13T15:21:01.184Z,97641.14
2018-05-13T15:23:29.454Z,97649.70
2018-05-13T15:25:57.763Z,97642.72
2018-05-13T15:28:26.042Z,97643.63
2018-05-13T15:30:54.329Z,97642.91
2018-05-13T15:33:22.612Z,97646.02
2018-05-13T15:35:50.898Z,97646.50
2018-05-13T15:38:19.191Z,97648.08
2018-05-13T15:40:47.467Z,97646.14
2018-05-13T15:43:15.773Z,97633.27
2018-05-13T15:45:44.776Z,97634.32
2018-05-13T15:48:13.061Z,97637.37
2018-05-13T15:50:41.776Z,97637.08
2018-05-13T15:53:10.049Z,97634.95
2018-05-13T15:55:38.346Z,97634.20
2018-05-13T15:58:06.631Z,97635.58
2018-05-13T16:00:34.886Z,97635.03
2018-05-13T16:03:04.724Z,97629.45
2018-05-13T16:05:34.188Z,97625.80
2018-05-13T16:08:02.522Z,97631.70
2018-05-13T16:10:30.806Z,97635.77
2018-05-13T16:12:59.073Z,97642.45
2018-05-13T16:15:28.135Z,97638.13
2018-05-13T16:17:56.403Z,97640.45
2018-05-13T16:20:24.708Z,97641.78
2018-05-13T16:22:54.997Z,97633.53
2018-05-13T16:25:23.981Z,97636.68
2018-05-13T16:27:52.680Z,97632.09
2018-05-13T16:30:20.969Z,97640.42
2018-05-13T16:32:50.071Z,97632.91
2018-05-13T16:35:18.372Z,97635.61
2018-05-13T16:37:47.745Z,97638.80
2018-05-13T16:40:16.019Z,97635.38
2018-05-13T16:42:44.287Z,97629.39
2018-05-13T16:45:12.566Z,97633.48
2018-05-13T16:47:40.833Z,97635.47
2018-05-13T16:50:09.133Z,97637.58
2018-05-13T16:52:37.439Z,97620.02
2018-05-13T16:55:06.109Z,97630.82
2018-05-13T16:57:34.431Z,97637.83
2018-05-13T17:00:03.485Z,97628.82
2018-05-13T17:02:31.773Z,97631.14
2018-05-13T17:05:00.578Z,97638.02
2018-05-13T17:07:29.612Z,97637.26
2018-05-13T17:09:57.952Z,97647.05
2018-05-13T17:12:26.990Z,97644.08
2018-05-13T17:14:55.296Z,97637.94
2018-05-13T17:17:24.025Z,97639.89
2018-05-13T17:19:52.252Z,97640.53
2018-05-13T17:22:20.611Z,97630.05
2018-05-13T17:24:48.891Z,97638.11
2018-05-13T17:27:17.144Z,97647.39
2018-05-13T17:29:45.547Z,97648.89
2018-05-13T17:32:13.795Z,97644.64
2018-05-13T17:34:42.141Z,97641.45
2018-05-13T17:37:10.427Z,97638.22
2018-05-13T17:39:38.731Z,97643.62
2018-05-13T17:42:07.017Z,97642.47
2018-05-13T17:44:35.318Z,97637.37
2018-05-13T17:47:03.580Z,97638.17
2018-05-13T17:49:31.874Z,97641.22
2018-05-13T17:52:00.175Z,97643.34
2018-05-13T17:54:29.308Z,97640.31
2018-05-13T17:56:57.581Z,97641.89
2018-05-13T17:59:25.890Z,97643.98
2018-05-13T18:01:54.201Z,97644.88
2018-05-13T18:04:22.545Z,97640.24
2018-05-13T18:06:50.932Z,97636.34
2018-05-13T18:09:19.178Z,97638.46
2018-05-13T18:11:47.481Z,97642.77
2018-05-13T18:14:15.750Z,97641.00
2018-05-13T18:16:44.069Z,97636.78
2018-05-13T18:19:12.346Z,97635.72
2018-05-13T18:21:40.733Z,97635.19
2018-05-13T18:24:09.739Z,97636.98
2018-05-13T18:26:38.049Z,97630.95
2018-05-13T18:29:07.131Z,97640.53
2018-05-13T18:31:35.444Z,97637.08
2018-05-13T18:34:03.777Z,97637.73
2018-05-13T18:36:32.061Z,97647.23
2018-05-13T18:39:00.431Z,97639.16
2018-05-13T18:41:28.684Z,97639.27
2018-05-13T18:43:56.986Z,97654.63
2018-05-13T18:46:25.365Z,97649.89
2018-05-13T18:48:53.744Z,97655.89
2018-05-13T18:51:22.192Z,97657.55
2018-05-13T18:53:50.507Z,97651.94
2018-05-13T18:56:18.806Z,97649.62
2018-05-13T18:58:47.149Z,97644.48
2018-05-13T19:01:15.511Z,97649.20
2018-05-13T19:03:43.849Z,97655.53
2018-05-13T19:06:14.759Z,97653.14
2018-05-13T19:08:43.171Z,97657.55
2018-05-13T19:11:12.232Z,97662.17
2018-05-13T19:13:40.546Z,97660.91
2018-05-13T19:16:08.818Z,97664.87
2018-05-13T19:18:37.149Z,97660.21
2018-05-13T19:21:05.513Z,97661.77
2018-05-13T19:23:33.805Z,97667.45
2018-05-13T19:26:02.249Z,97665.67
2018-05-13T19:28:31.307Z,97662.73
2018-05-13T19:30:59.682Z,97661.93
2018-05-13T19:33:28.689Z,97665.89
2018-05-13T19:35:56.968Z,97668.15
2018-05-13T19:38:25.291Z,97662.28
2018-05-13T19:40:53.575Z,97663.50
2018-05-13T19:43:21.880Z,97661.31
2018-05-13T19:45:50.176Z,97657.77
2018-05-13T19:48:18.830Z,97657.52
2018-05-13T19:50:47.147Z,97656.66
2018-05-13T19:53:15.910Z,97658.89
2018-05-13T19:55:44.203Z,97651.45
2018-05-13T19:58:12.538Z,97648.41
2018-05-13T20:00:40.819Z,97660.45
2018-05-13T20:03:09.264Z,97650.04
2018-05-13T20:05:37.437Z,97645.77
2018-05-13T20:08:05.750Z,97641.02
2018-05-13T20:10:34.061Z,97648.32
2018-05-13T20:13:02.343Z,97644.91
2018-05-13T20:15:31.473Z,97646.58
2018-05-13T20:17:59.958Z,97644.67
2018-05-13T20:20:28.380Z,97651.25
2018-05-13T20:23:14.300Z,97655.19
2018-05-13T20:25:42.589Z,97653.22
2018-05-13T20:28:10.906Z,97653.83
2018-05-13T20:30:39.241Z,97660.81
2018-05-13T20:33:07.590Z,97654.80
2018-05-13T20:35:35.892Z,97656.36
2018-05-13T20:38:04.192Z,97650.14
2018-05-13T20:40:32.477Z,97652.06
2018-05-13T20:43:00.767Z,97658.89
2018-05-13T20:45:29.847Z,97651.66
2018-05-13T20:47:58.130Z,97664.02
2018-05-13T20:50:26.497Z,97656.52
2018-05-13T20:52:54.817Z,97670.03
2018-05-13T20:55:23.072Z,97663.50
2018-05-13T20:57:51.489Z,97656.50
2018-05-13T21:00:19.730Z,97644.04
2018-05-13T21:02:48.831Z,97643.41
2018-05-13T21:05:17.915Z,97654.40
2018-05-13T21:07:46.161Z,97648.00
2018-05-13T21:10:14.449Z,97641.09
2018-05-13T21:12:42.725Z,97649.75
2018-05-13T21:15:11.023Z,97657.16
2018-05-13T21:17:39.321Z,97656.16
2018-05-13T21:20:07.632Z,97661.04
2018-05-13T21:22:35.917Z,97658.98
2018-05-13T21:25:04.190Z,97649.85
2018-05-13T21:27:32.492Z,97650.90
2018-05-13T21:30:00.860Z,97640.20
2018-05-13T21:32:29.129Z,97644.55
2018-05-13T21:34:57.405Z,97611.76
2018-05-13T21:37:25.713Z,97618.42
2018-05-13T21:39:53.990Z,97623.80
2018-05-13T21:42:23.778Z,97622.06
2018-05-13T21:44:52.076Z,97614.58
2018-05-13T21:47:20.375Z,97619.94
2018-05-13T21:49:48.675Z,97605.53
2018-05-13T21:52:16.983Z,97609.03
2018-05-13T21:54:45.261Z,97604.48
2018-05-13T22:15:19.703Z,97593.34
2018-05-13T22:35:52.824Z,97578.62
2018-05-13T22:56:27.365Z,97565.97
2018-05-13T23:17:02.588Z,97569.66
2018-05-13T23:37:35.831Z,97595.95
2018-05-13T23:58:07.775Z,97590.30
